Time;durP1;ratioP1;P1;durP2;ratioP2;P2;SDS_P1;SDS_P2;PMS_P1;PMS_P2;Temp;Humidity;BMP_temperature;BMP_pressure;BME280_temperature;BME280_humidity;BME280_pressure;Samples;Min_cycle;Max_cycle;Signal;HPM_P1;HPM_P2
2021/07/16 00:01:40;;;;;;;14.05;9.45;;;;;;;19.76;72.11;100072.27;2080145;84;32986;-69
2021/07/16 00:04:45;;;;;;;15.28;9.50;;;;;;;19.72;72.24;100077.10;2071087;85;30246;-69
2021/07/16 00:07:47;;;;;;;13.25;9.73;;;;;;;19.69;72.31;100084.20;2062914;85;28238;-68
2021/07/16 00:10:50;;;;;;;10.85;9.75;;;;;;;19.66;72.24;100080.41;2070922;85;29418;-69
2021/07/16 00:13:52;;;;;;;11.22;9.53;;;;;;;19.63;72.41;100080.68;2073322;85;32061;-69
2021/07/16 00:16:54;;;;;;;15.08;10.65;;;;;;;19.58;72.39;100085.19;2080915;85;32947;-70
2021/07/16 00:19:56;;;;;;;14.83;9.35;;;;;;;19.53;72.57;100082.86;2087772;85;29178;-69
2021/07/16 00:22:58;;;;;;;28.57;10.55;;;;;;;19.51;72.52;100090.80;2076482;85;27677;-69
2021/07/16 00:26:00;;;;;;;10.63;9.40;;;;;;;19.50;72.64;100088.60;2075078;84;28701;-67
2021/07/16 00:29:04;;;;;;;17.52;10.25;;;;;;;19.49;72.63;100087.36;2074694;84;32085;-68
2021/07/16 00:32:09;;;;;;;12.75;9.73;;;;;;;19.47;72.67;100088.00;2070262;85;33021;-68
2021/07/16 00:35:15;;;;;;;15.78;11.83;;;;;;;19.46;72.72;100084.44;2077013;85;29393;-67
2021/07/16 00:38:19;;;;;;;15.18;11.12;;;;;;;19.41;72.87;100095.72;2077104;85;27567;-68
2021/07/16 00:41:23;;;;;;;13.85;10.25;;;;;;;19.36;72.85;100096.63;2068149;85;29411;-67
2021/07/16 00:44:28;;;;;;;15.83;11.15;;;;;;;19.31;72.98;100098.89;2064935;85;31170;-68
2021/07/16 00:47:44;;;;;;;14.65;10.78;;;;;;;19.30;73.27;100105.32;2063581;85;33816;-68
2021/07/16 00:50:52;;;;;;;16.65;10.90;;;;;;;19.26;73.16;100118.33;2058328;85;29642;-68
2021/07/16 00:53:52;;;;;;;11.12;9.83;;;;;;;19.25;73.32;100119.32;2109015;83;28266;-68
2021/07/16 00:56:56;;;;;;;12.30;10.00;;;;;;;19.25;73.33;100115.76;2100275;82;28714;-68
2021/07/16 00:59:59;;;;;;;18.10;10.63;;;;;;;19.24;73.35;100112.16;2099668;84;31153;-68
2021/07/16 01:03:02;;;;;;;14.03;9.58;;;;;;;19.21;73.34;100110.23;2099365;84;33907;-68
2021/07/16 01:06:07;;;;;;;14.78;9.78;;;;;;;19.19;73.37;100117.17;2098121;84;29381;-68
2021/07/16 01:09:13;;;;;;;11.43;9.28;;;;;;;19.19;73.41;100125.80;2103374;84;27757;-68
2021/07/16 01:12:17;;;;;;;13.95;11.08;;;;;;;19.19;73.52;100125.32;2102012;84;28857;-67
2021/07/16 01:15:24;;;;;;;14.77;9.97;;;;;;;19.19;73.49;100119.02;2096697;84;31714;-68
2021/07/16 01:18:27;;;;;;;14.68;10.98;;;;;;;19.20;73.45;100105.80;2092910;84;33386;-68
2021/07/16 01:21:33;;;;;;;12.37;10.13;;;;;;;19.18;73.52;100088.30;2068831;84;30170;-68
2021/07/16 01:24:37;;;;;;;12.78;9.15;;;;;;;19.17;73.56;100082.98;2067022;84;27686;-68
2021/07/16 01:27:40;;;;;;;12.13;9.30;;;;;;;19.16;73.53;100071.75;2097628;83;28725;-69
2021/07/16 01:30:43;;;;;;;14.35;10.30;;;;;;;19.15;73.48;100066.84;2103321;84;31166;-69
2021/07/16 01:33:47;;;;;;;13.80;10.13;;;;;;;19.13;73.49;100064.24;2109665;84;33059;-69
2021/07/16 01:36:50;;;;;;;14.18;10.23;;;;;;;19.13;73.54;100064.75;2100402;83;29577;-69
2021/07/16 01:39:51;;;;;;;12.88;10.10;;;;;;;19.12;73.58;100065.75;2103757;84;27599;-69
2021/07/16 01:42:57;;;;;;;17.37;10.98;;;;;;;19.11;73.51;100065.39;2092340;85;29444;-68
2021/07/16 01:45:59;;;;;;;11.33;9.60;;;;;;;19.07;73.67;100058.02;2097793;84;31926;-69
2021/07/16 01:49:02;;;;;;;11.10;9.60;;;;;;;19.05;73.67;100060.02;2118688;82;32971;-68
2021/07/16 01:52:05;;;;;;;15.80;9.98;;;;;;;19.05;73.71;100069.52;2091562;84;30070;-68
2021/07/16 01:55:37;;;;;;;15.68;10.65;;;;;;;19.05;73.77;100070.87;2160863;82;27751;-68
2021/07/16 01:58:20;;;;;;;21.87;11.93;;;;;;;19.07;73.78;100072.08;2131154;82;27823;-69
2021/07/16 02:01:24;;;;;;;19.82;11.48;;;;;;;19.07;73.96;100080.23;2167502;82;31936;-70
2021/07/16 02:04:26;;;;;;;12.40;10.10;;;;;;;19.08;73.92;100086.89;2147313;82;33637;-70
2021/07/16 02:07:35;;;;;;;12.37;10.15;;;;;;;19.08;74.01;100072.44;2156481;82;29398;-69
2021/07/16 02:10:50;;;;;;;13.25;8.98;;;;;;;19.08;73.99;100081.95;2167883;82;27807;-69
2021/07/16 02:13:55;;;;;;;13.70;10.70;;;;;;;19.10;73.97;100074.53;2167407;82;27735;-70
2021/07/16 02:17:00;;;;;;;13.28;10.48;;;;;;;19.12;74.04;100081.53;2165966;82;32022;-70
2021/07/16 02:20:02;;;;;;;15.58;10.25;;;;;;;19.14;74.02;100086.84;2159324;82;33066;-70
2021/07/16 02:23:08;;;;;;;16.05;10.85;;;;;;;19.14;74.04;100080.05;2163529;81;30128;-71
2021/07/16 02:26:10;;;;;;;15.60;11.63;;;;;;;19.16;74.01;100075.83;2154635;81;27630;-70
2021/07/16 02:29:11;;;;;;;15.23;10.18;;;;;;;19.14;74.10;100073.27;2167318;82;28830;-70
2021/07/16 02:32:13;;;;;;;16.32;10.58;;;;;;;19.11;74.07;100068.95;2167532;82;30456;-69
2021/07/16 02:35:16;;;;;;;12.45;11.12;;;;;;;19.11;74.05;100067.59;2167405;82;32538;-70
2021/07/16 02:38:18;;;;;;;17.07;10.78;;;;;;;19.12;74.07;100067.11;2164677;82;29325;-70
2021/07/16 02:41:19;;;;;;;16.87;10.63;;;;;;;19.11;74.16;100064.03;2167926;82;27767;-70
2021/07/16 02:44:21;;;;;;;15.68;11.48;;;;;;;19.10;74.13;100065.02;2149448;82;28196;-70
2021/07/16 02:47:23;;;;;;;19.48;11.73;;;;;;;19.11;74.18;100072.17;2161802;82;31010;-69
2021/07/16 02:50:38;;;;;;;18.27;10.70;;;;;;;19.10;74.26;100069.09;2177873;81;33720;-69
2021/07/16 02:53:39;;;;;;;13.22;10.00;;;;;;;19.11;74.17;100068.10;2171600;82;30203;-69
2021/07/16 02:56:41;;;;;;;14.13;9.25;;;;;;;19.12;74.19;100063.87;2172310;80;27696;-69
2021/07/16 02:59:43;;;;;;;13.55;10.18;;;;;;;19.13;74.15;100063.39;2171188;82;29118;-70
2021/07/16 03:02:48;;;;;;;16.02;10.93;;;;;;;19.13;74.11;100061.52;2171623;82;31253;-69
2021/07/16 03:05:49;;;;;;;19.62;10.63;;;;;;;19.12;74.07;100069.82;2171686;82;33058;-69
2021/07/16 03:08:51;;;;;;;14.65;10.93;;;;;;;19.12;74.20;100067.11;2171559;81;30113;-69
2021/07/16 03:11:53;;;;;;;14.47;10.72;;;;;;;19.12;74.26;100069.31;2162195;82;27678;-68
2021/07/16 03:14:55;;;;;;;16.42;10.48;;;;;;;19.15;74.24;100062.77;2170612;82;29594;-68
2021/07/16 03:17:57;;;;;;;17.48;10.03;;;;;;;19.19;74.24;100072.84;2171408;81;31022;-67
2021/07/16 03:20:59;;;;;;;14.43;11.03;;;;;;;19.23;74.24;100060.72;2164419;81;33750;-67
2021/07/16 03:24:01;;;;;;;18.05;10.75;;;;;;;19.25;74.22;100055.49;2178201;81;29304;-68
2021/07/16 03:27:03;;;;;;;14.80;11.70;;;;;;;19.33;74.32;100056.16;2177415;81;27692;-68
2021/07/16 03:30:18;;;;;;;20.92;10.90;;;;;;;19.40;74.28;100055.97;2178090;81;29898;-70
2021/07/16 03:33:19;;;;;;;;;;;;;;;19.47;74.22;100045.88;2179823;81;32426;-68
2021/07/16 03:36:24;;;;;;;15.08;9.93;;;;;;;19.55;74.14;100050.13;2169307;82;33109;-69
2021/07/16 03:39:27;;;;;;;16.80;11.08;;;;;;;19.65;74.07;100061.02;2171742;82;30191;-69
2021/07/16 03:42:28;;;;;;;13.83;10.60;;;;;;;19.78;73.92;100063.44;2178539;81;27716;-69
2021/07/16 03:45:31;;;;;;;12.25;10.70;;;;;;;19.91;73.84;100074.08;2178107;81;28886;-68
2021/07/16 03:48:32;;;;;;;13.00;9.78;;;;;;;20.06;73.71;100077.23;2171630;82;31031;-69
2021/07/16 03:51:34;;;;;;;11.48;9.75;;;;;;;20.23;73.56;100079.23;2161211;81;33228;-69
2021/07/16 03:54:37;;;;;;;14.30;9.18;;;;;;;20.36;73.40;100085.72;2161667;82;29366;-69
2021/07/16 03:57:44;;;;;;;13.30;8.90;;;;;;;20.49;73.21;100083.57;2153201;82;27693;-68
2021/07/16 04:00:46;;;;;;;13.32;8.98;;;;;;;20.62;73.02;100076.42;2157248;82;28661;-69
2021/07/16 04:03:48;;;;;;;12.37;8.83;;;;;;;20.74;72.74;100071.67;2156389;82;31027;-69
2021/07/16 04:06:53;;;;;;;8.78;7.87;;;;;;;20.84;72.46;100081.72;2156113;82;33784;-69
2021/07/16 04:09:55;;;;;;;11.18;8.68;;;;;;;20.90;72.17;100079.75;2161368;81;29348;-69
2021/07/16 04:12:59;;;;;;;10.80;8.35;;;;;;;20.95;72.08;100081.53;2162079;82;27695;-69
2021/07/16 04:16:01;;;;;;;11.97;8.75;;;;;;;20.99;71.82;100091.61;2161681;82;28690;-69
2021/07/16 04:19:03;;;;;;;15.28;9.33;;;;;;;20.99;71.72;100089.77;2161662;82;30711;-69
2021/07/16 04:22:06;;;;;;;13.88;8.18;;;;;;;21.01;71.73;100091.84;2161596;82;33799;-69
2021/07/16 04:25:14;;;;;;;15.00;7.95;;;;;;;21.03;71.67;100097.13;2151505;82;29477;-68
2021/07/16 04:28:12;;;;;;;17.07;9.48;;;;;;;21.06;71.45;100107.20;2158079;82;33159;-68
2021/07/16 04:31:15;;;;;;;17.25;10.08;;;;;;;21.08;71.38;100104.35;2151890;82;28606;-68
2021/07/16 04:34:17;;;;;;;17.45;10.08;;;;;;;21.12;71.29;100107.63;2124738;82;31022;-69
2021/07/16 04:37:18;;;;;;;15.40;9.90;;;;;;;21.19;71.29;100114.17;2157974;82;32967;-69
2021/07/16 04:40:22;;;;;;;17.45;9.68;;;;;;;21.24;71.07;100120.91;2161889;82;29467;-68
2021/07/16 04:43:27;;;;;;;11.97;9.70;;;;;;;21.28;71.04;100118.74;2161928;82;27675;-69
2021/07/16 04:46:29;;;;;;;17.73;9.23;;;;;;;21.37;71.06;100115.62;2155829;82;28651;-68
2021/07/16 04:49:33;;;;;;;11.57;8.45;;;;;;;21.49;71.04;100104.86;2155987;80;31184;-69
2021/07/16 04:52:44;;;;;;;;;;;;;;;21.73;71.01;100108.91;2124243;83;32992;-69
2021/07/16 04:55:46;;;;;;;13.00;9.43;;;;;;;21.98;70.51;100110.03;2119382;83;29383;-69
2021/07/16 04:58:48;;;;;;;13.70;9.78;;;;;;;22.14;70.42;100110.67;2120780;83;28384;-69
2021/07/16 05:01:51;;;;;;;15.15;9.93;;;;;;;22.36;70.13;100115.31;2118496;83;28030;-69
2021/07/16 05:04:53;;;;;;;12.37;10.13;;;;;;;22.86;70.22;100122.01;2123504;83;31004;-69
2021/07/16 05:07:55;;;;;;;13.95;10.08;;;;;;;23.66;69.85;100114.05;2123066;83;33732;-68
2021/07/16 05:10:57;;;;;;;12.88;8.88;;;;;;;24.54;68.60;100117.77;2123284;83;29767;-68
2021/07/16 05:14:02;;;;;;;10.53;8.93;;;;;;;25.36;67.49;100126.36;2123221;83;27708;-68
2021/07/16 05:17:05;;;;;;;12.40;8.45;;;;;;;25.79;65.82;100131.50;2119309;83;29920;-69
2021/07/16 05:20:08;;;;;;;15.90;8.93;;;;;;;25.82;64.97;100142.09;2122547;83;31791;-69
2021/07/16 05:23:11;;;;;;;9.37;8.47;;;;;;;25.68;63.81;100145.10;2123066;83;33016;-68
2021/07/16 05:26:13;;;;;;;10.18;8.15;;;;;;;25.52;63.81;100151.50;2123075;83;29387;-68
2021/07/16 05:29:15;;;;;;;10.15;9.23;;;;;;;25.44;63.74;100151.02;2120414;83;27701;-68
2021/07/16 05:32:17;;;;;;;13.85;8.73;;;;;;;25.38;63.31;100159.07;2116741;83;29482;-67
2021/07/16 05:35:27;;;;;;;9.40;8.13;;;;;;;25.24;63.44;100170.25;2123027;83;31700;-67
2021/07/16 05:38:29;;;;;;;10.63;8.08;;;;;;;25.21;63.49;100173.36;2034505;86;32976;-65
2021/07/16 05:41:32;;;;;;;10.25;9.08;;;;;;;25.10;63.26;100174.05;2034305;87;30516;-67
2021/07/16 05:44:34;;;;;;;16.42;8.98;;;;;;;25.05;63.27;100168.27;2031581;87;27756;-66
2021/07/16 05:47:35;;;;;;;10.15;8.73;;;;;;;25.02;63.35;100167.23;2033521;87;29565;-69
2021/07/16 05:50:40;;;;;;;12.47;9.10;;;;;;;25.00;63.21;100171.50;2043247;84;32197;-70
2021/07/16 05:53:43;;;;;;;10.08;9.08;;;;;;;24.96;63.23;100176.14;2037499;86;49743;-69
2021/07/16 05:56:45;;;;;;;13.38;9.45;;;;;;;24.80;62.75;100179.24;2060259;86;29496;-69
2021/07/16 05:59:47;;;;;;;15.95;9.95;;;;;;;24.67;62.76;100180.25;2060441;86;27757;-69
2021/07/16 06:02:49;;;;;;;11.15;9.03;;;;;;;24.52;62.76;100191.89;2060439;86;28702;-69
2021/07/16 06:05:51;;;;;;;15.05;11.35;;;;;;;24.42;62.93;100198.02;2023517;87;31035;-69
2021/07/16 06:08:52;;;;;;;14.53;10.58;;;;;;;24.35;63.11;100192.38;2072381;85;33751;-68
2021/07/16 06:11:54;;;;;;;14.40;9.53;;;;;;;24.33;63.05;100186.20;2071568;85;30102;-68
2021/07/16 06:14:56;;;;;;;16.15;9.93;;;;;;;24.26;63.14;100194.24;2072407;85;27749;-69
2021/07/16 06:17:58;;;;;;;10.80;9.70;;;;;;;24.25;63.23;100190.31;2071997;85;28715;-69
2021/07/16 06:20:59;;;;;;;16.62;9.48;;;;;;;24.22;63.20;100192.02;2072377;85;31748;-69
2021/07/16 06:24:01;;;;;;;12.47;8.98;;;;;;;24.20;63.31;100181.25;2072325;85;32970;-69
2021/07/16 06:27:04;;;;;;;10.45;9.35;;;;;;;24.24;63.38;100170.81;2072506;85;29415;-69
2021/07/16 06:30:08;;;;;;;11.05;9.50;;;;;;;24.34;63.30;100170.13;2070255;84;27789;-69
2021/07/16 06:33:13;;;;;;;11.20;8.93;;;;;;;24.43;63.38;100170.49;2072411;85;28703;-68
2021/07/16 06:36:15;;;;;;;15.98;8.78;;;;;;;24.50;63.16;100169.79;2147989;82;31102;-70
2021/07/16 06:39:16;;;;;;;12.58;8.88;;;;;;;24.60;63.19;100160.03;2165236;82;33594;-70
2021/07/16 06:42:18;;;;;;;19.07;9.85;;;;;;;24.75;63.28;100158.87;2165870;82;29308;-69
2021/07/16 06:45:21;;;;;;;12.07;9.38;;;;;;;24.90;63.21;100158.52;2155125;81;27629;-69
2021/07/16 06:48:23;;;;;;;12.13;10.00;;;;;;;25.12;63.05;100153.34;2162991;82;29265;-70
2021/07/16 06:51:35;;;;;;;12.75;10.18;;;;;;;25.28;62.92;100160.64;2141757;82;31275;-68
2021/07/16 06:54:39;;;;;;;12.63;8.88;;;;;;;25.35;62.70;100149.33;2153448;82;30535;-68
2021/07/16 06:57:41;;;;;;;14.35;10.03;;;;;;;25.39;62.56;100148.45;2141905;82;29323;-69
2021/07/16 07:00:47;;;;;;;11.10;9.18;;;;;;;25.39;62.36;100144.33;2147478;82;27648;-69
2021/07/16 07:03:49;;;;;;;14.18;9.55;;;;;;;25.34;62.18;100145.70;2150219;82;28895;-70
2021/07/16 07:06:52;;;;;;;16.75;10.48;;;;;;;25.26;62.21;100144.88;2147610;82;31681;-69
2021/07/16 07:09:54;;;;;;;14.00;9.75;;;;;;;25.17;62.39;100141.31;2129740;83;33072;-69
2021/07/16 07:12:57;;;;;;;11.25;9.13;;;;;;;25.16;62.54;100153.30;2137876;82;30430;-68
2021/07/16 07:16:00;;;;;;;10.63;9.05;;;;;;;25.08;62.45;100158.30;2147683;82;27748;-68
2021/07/16 07:19:04;;;;;;;14.20;10.13;;;;;;;25.02;62.41;100154.90;2149379;81;28726;-68
2021/07/16 07:22:06;;;;;;;22.40;9.68;;;;;;;24.98;62.56;100163.13;2150935;82;31130;-68
2021/07/16 07:25:11;;;;;;;18.87;10.85;;;;;;;24.97;62.67;100168.27;2153882;82;32993;-70
2021/07/16 07:28:58;;;;;;;16.45;11.43;;;;;;;25.01;62.75;100170.47;2143992;82;29995;-70
2021/07/16 07:31:54;;;;;;;12.68;10.30;;;;;;;25.09;62.84;100175.08;2073366;82;27699;-69
2021/07/16 07:34:42;;;;;;;12.60;10.20;;;;;;;25.28;62.79;100174.36;2121655;82;27708;-68
2021/07/16 07:38:10;;;;;;;11.30;9.48;;;;;;;25.51;62.67;100173.64;2148899;82;31853;-69
2021/07/16 07:41:45;;;;;;;16.07;9.85;;;;;;;25.87;62.73;100171.77;2130495;82;29691;-69
2021/07/16 07:44:10;;;;;;;18.23;10.90;;;;;;;26.39;62.63;100160.64;2079659;82;27820;-69
2021/07/16 07:47:12;;;;;;;13.43;9.43;;;;;;;26.93;61.52;100167.08;2154905;82;27779;-68
2021/07/16 07:50:22;;;;;;;14.93;10.38;;;;;;;27.40;61.57;100167.24;2151211;81;29471;-68
2021/07/16 07:53:25;;;;;;;9.60;8.68;;;;;;;28.12;60.92;100162.05;2142541;83;32041;-69
2021/07/16 07:56:27;;;;;;;14.05;9.75;;;;;;;28.76;59.97;100172.75;2129858;81;33617;-69
2021/07/16 07:59:29;;;;;;;14.68;10.38;;;;;;;29.21;59.23;100168.31;2129255;83;29296;-68
2021/07/16 08:02:30;;;;;;;10.90;9.80;;;;;;;29.68;58.37;100170.49;2129649;82;27708;-68
2021/07/16 08:05:32;;;;;;;12.07;10.45;;;;;;;30.16;57.83;100174.62;2128720;83;28619;-68
2021/07/16 08:08:34;;;;;;;13.48;9.45;;;;;;;30.88;56.52;100176.84;2129786;81;31802;-69
2021/07/16 08:11:36;;;;;;;11.70;10.15;;;;;;;31.26;55.59;100181.41;2129892;83;33822;-68
2021/07/16 08:14:38;;;;;;;16.12;11.30;;;;;;;31.50;54.71;100190.94;2130417;83;29427;-68
2021/07/16 08:17:40;;;;;;;12.28;9.85;;;;;;;31.62;53.13;100191.95;2129625;83;27705;-68
2021/07/16 08:20:42;;;;;;;12.35;9.80;;;;;;;31.72;53.33;100192.08;2105332;83;28820;-70
2021/07/16 08:23:44;;;;;;;12.45;10.25;;;;;;;31.78;52.73;100186.50;2130003;83;31942;-69
2021/07/16 08:26:50;;;;;;;14.05;10.38;;;;;;;31.85;51.52;100187.86;2130099;83;33803;-69
2021/07/16 08:29:49;;;;;;;11.12;9.75;;;;;;;31.78;51.07;100188.41;2129169;83;30274;-69
2021/07/16 08:32:55;;;;;;;10.82;9.73;;;;;;;31.87;51.48;100195.42;2130232;83;27690;-70
2021/07/16 08:35:55;;;;;;;11.03;9.23;;;;;;;32.17;50.77;100188.45;2110462;82;28678;-70
2021/07/16 08:38:59;;;;;;;12.88;9.68;;;;;;;32.45;50.33;100183.91;2130345;83;31001;-70
2021/07/16 08:42:03;;;;;;;10.72;9.55;;;;;;;32.63;49.79;100179.52;2129859;83;32990;-70
2021/07/16 08:45:10;;;;;;;11.50;8.93;;;;;;;32.62;49.49;100183.36;2128220;83;29320;-71
2021/07/16 08:48:14;;;;;;;10.38;9.28;;;;;;;32.60;49.13;100176.66;2129640;81;27725;-71
2021/07/16 08:51:21;;;;;;;10.15;8.93;;;;;;;32.84;49.21;100172.23;2126490;81;29103;-71
2021/07/16 08:54:23;;;;;;;11.33;9.73;;;;;;;33.23;48.64;100168.45;2128610;83;31108;-72
2021/07/16 08:57:27;;;;;;;12.98;9.90;;;;;;;33.44;48.09;100176.90;2129372;83;33677;-70
2021/07/16 09:00:29;;;;;;;11.22;9.45;;;;;;;33.66;47.80;100170.33;2116924;84;28867;-71
2021/07/16 09:03:31;;;;;;;9.70;8.40;;;;;;;33.89;47.49;100164.62;2116896;83;27722;-70
2021/07/16 09:06:47;;;;;;;10.53;9.13;;;;;;;34.20;46.69;100166.86;2128979;82;28621;-70
2021/07/16 09:09:49;;;;;;;13.32;10.08;;;;;;;34.50;46.31;100164.61;2116772;83;31027;-70
2021/07/16 09:13:01;;;;;;;14.15;8.83;;;;;;;34.66;45.52;100167.26;2117030;82;33033;-69
2021/07/16 09:16:05;;;;;;;10.45;9.23;;;;;;;34.76;45.61;100169.42;2115359;83;29364;-71
2021/07/16 09:19:07;;;;;;;10.13;8.98;;;;;;;34.76;44.74;100172.20;2129508;83;27633;-71
2021/07/16 09:22:13;;;;;;;15.35;10.25;;;;;;;34.78;44.70;100172.81;2116706;83;28639;-70
2021/07/16 09:25:15;;;;;;;9.08;8.05;;;;;;;34.76;43.84;100173.59;2117061;84;31204;-68
2021/07/16 09:28:25;;;;;;;8.53;7.62;;;;;;;34.65;43.80;100176.69;2117116;83;33765;-67
2021/07/16 09:31:28;;;;;;;11.10;7.72;;;;;;;34.60;43.22;100180.72;2129340;83;29386;-68
2021/07/16 09:34:30;;;;;;;12.13;8.23;;;;;;;34.53;43.37;100174.71;2116966;84;27646;-67
2021/07/16 09:37:32;;;;;;;12.47;8.90;;;;;;;34.50;43.35;100177.97;2128306;83;29447;-69
2021/07/16 09:40:47;;;;;;;8.83;7.83;;;;;;;34.34;43.13;100181.39;2095060;84;31566;-68
2021/07/16 09:43:56;;;;;;;13.05;8.03;;;;;;;34.30;42.20;100181.59;2117083;84;33121;-70
2021/07/16 09:47:16;;;;;;;8.40;7.60;;;;;;;33.93;42.20;100177.81;2116470;84;30278;-69
2021/07/16 09:50:20;;;;;;;9.23;7.33;;;;;;;33.90;42.79;100183.84;2117082;83;27737;-68
2021/07/16 09:53:30;;;;;;;7.85;6.67;;;;;;;33.97;42.58;100180.13;2135443;82;28652;-70
2021/07/16 09:56:27;;;;;;;7.17;6.50;;;;;;;33.88;42.33;100177.62;2151188;82;31062;-69
2021/07/16 09:59:29;;;;;;;10.50;6.50;;;;;;;33.83;42.50;100180.28;2129514;82;33031;-70
2021/07/16 10:02:31;;;;;;;9.43;6.83;;;;;;;33.65;41.86;100179.74;2151554;82;29156;-69
2021/07/16 10:05:36;;;;;;;12.23;7.42;;;;;;;33.48;42.49;100182.30;2155016;82;27723;-70
2021/07/16 10:08:36;;;;;;;8.33;5.40;;;;;;;33.44;42.23;100185.23;2136034;82;28664;-71
2021/07/16 10:11:39;;;;;;;8.73;7.40;;;;;;;33.45;42.73;100186.93;2145140;82;31081;-69
2021/07/16 10:14:42;;;;;;;10.82;5.83;;;;;;;33.38;42.41;100183.36;2154964;82;33761;-70
2021/07/16 10:17:44;;;;;;;10.72;7.28;;;;;;;33.30;42.38;100181.70;2118247;83;30252;-69
2021/07/16 10:20:46;;;;;;;8.53;6.22;;;;;;;33.29;42.71;100189.72;2149921;81;27816;-69
2021/07/16 10:23:50;;;;;;;10.65;8.15;;;;;;;33.18;42.62;100188.03;2151555;82;29505;-69
2021/07/16 10:26:52;;;;;;;9.78;7.47;;;;;;;33.02;42.29;100183.90;2128941;82;31025;-69
2021/07/16 10:30:07;;;;;;;9.75;7.92;;;;;;;32.83;41.82;100185.79;2130131;82;33930;-69
2021/07/16 10:33:10;;;;;;;13.98;8.58;;;;;;;32.52;41.99;100185.25;2146005;82;30196;-68
2021/07/16 10:36:14;;;;;;;9.18;7.90;;;;;;;32.24;41.67;100190.64;2154471;82;27896;-69
2021/07/16 10:39:24;;;;;;;9.00;7.58;;;;;;;32.02;42.49;100186.80;2155092;82;28730;-69
2021/07/16 10:42:36;;;;;;;10.55;8.08;;;;;;;31.91;42.86;100186.99;2126878;82;31010;-69
2021/07/16 10:45:40;;;;;;;9.80;7.90;;;;;;;31.78;43.01;100191.18;2134507;82;32556;-70
2021/07/16 10:48:43;;;;;;;13.85;8.23;;;;;;;31.57;43.29;100191.78;2154682;82;29313;-69
2021/07/16 10:51:46;;;;;;;16.00;8.43;;;;;;;31.43;43.41;100199.27;2147468;82;28465;-69
2021/07/16 10:54:47;;;;;;;9.78;6.70;;;;;;;31.28;43.73;100188.42;2116547;84;28713;-69
2021/07/16 10:57:49;;;;;;;7.40;6.62;;;;;;;31.18;43.74;100196.33;2116926;82;31280;-70
2021/07/16 11:00:54;;;;;;;12.18;8.05;;;;;;;31.06;43.92;100195.58;2128933;83;32967;-70
2021/07/16 11:03:56;;;;;;;12.43;7.78;;;;;;;31.01;44.39;100193.14;2127394;82;29389;-69
2021/07/16 11:06:59;;;;;;;10.13;7.03;;;;;;;31.02;44.64;100193.45;2115834;83;28358;-70
2021/07/16 11:10:01;;;;;;;10.80;7.60;;;;;;;30.97;44.39;100184.39;2129134;83;29576;-70
2021/07/16 11:13:37;;;;;;;10.65;6.90;;;;;;;30.92;44.25;100180.05;2117034;82;31002;-69
2021/07/16 11:16:54;;;;;;;11.75;8.13;;;;;;;30.86;44.32;100178.97;2116850;83;32916;-69
2021/07/16 11:20:20;;;;;;;9.50;7.25;;;;;;;30.79;44.04;100178.14;2115452;84;29421;-69
2021/07/16 11:23:58;;;;;;;12.47;7.62;;;;;;;30.67;44.56;100174.31;2116854;83;27647;-69
2021/07/16 11:27:17;;;;;;;12.60;8.68;;;;;;;30.53;45.14;100169.27;2129176;83;30043;-69
2021/07/16 11:30:26;;;;;;;8.88;7.30;;;;;;;30.42;44.07;100164.69;2116410;84;31144;-68
2021/07/16 11:33:41;;;;;;;9.23;6.87;;;;;;;30.43;44.33;100158.11;2116836;83;33745;-67
2021/07/16 11:37:00;;;;;;;9.63;6.83;;;;;;;30.45;44.72;100159.27;2116427;83;29581;-68
2021/07/16 11:40:20;;;;;;;13.93;7.58;;;;;;;30.50;44.28;100160.88;2114895;84;28249;-67
2021/07/16 11:43:22;;;;;;;12.15;6.72;;;;;;;30.52;44.80;100164.80;2073800;84;28659;-69
2021/07/16 11:46:31;;;;;;;12.35;7.17;;;;;;;30.56;44.11;100166.11;2100949;84;32283;-68
2021/07/16 11:49:33;;;;;;;13.58;7.75;;;;;;;30.61;44.06;100167.72;2117000;83;33756;-69
2021/07/16 11:52:38;;;;;;;11.70;8.83;;;;;;;30.59;44.43;100164.31;2138236;81;29359;-69
2021/07/16 11:55:43;;;;;;;11.40;7.12;;;;;;;30.59;44.06;100167.08;2150521;82;27521;-67
2021/07/16 11:58:50;;;;;;;8.95;7.15;;;;;;;30.51;44.45;100157.05;2131242;82;29574;-68
2021/07/16 12:02:08;;;;;;;12.18;7.85;;;;;;;30.59;44.89;100165.16;2138438;82;31207;-67
2021/07/16 12:05:15;;;;;;;16.35;7.65;;;;;;;30.64;44.72;100156.21;2142873;82;33124;-68
2021/07/16 12:08:27;;;;;;;7.95;7.25;;;;;;;30.64;44.78;100164.51;2141984;82;29384;-68
2021/07/16 12:11:28;;;;;;;10.60;9.30;;;;;;;30.64;44.89;100156.21;2130040;82;27688;-69
2021/07/16 12:14:55;;;;;;;7.85;5.92;;;;;;;30.62;44.27;100161.10;2129717;83;28624;-68
2021/07/16 12:18:01;;;;;;;6.42;5.70;;;;;;;30.56;44.22;100162.80;2140952;82;31050;-68
2021/07/16 12:21:11;;;;;;;7.33;6.55;;;;;;;30.48;44.37;100158.84;2142482;82;32760;-68
2021/07/16 12:24:15;;;;;;;10.13;7.60;;;;;;;30.48;44.55;100151.94;2129159;83;30298;-68
2021/07/16 12:27:17;;;;;;;11.83;7.40;;;;;;;30.50;44.50;100153.09;2147543;82;27573;-68
2021/07/16 12:30:20;;;;;;;14.85;6.65;;;;;;;30.41;43.55;100160.73;2154569;82;28872;-67
2021/07/16 12:33:27;;;;;;;11.93;6.00;;;;;;;30.25;43.37;100157.31;2154539;82;31686;-68
2021/07/16 12:36:33;;;;;;;13.55;7.87;;;;;;;30.19;42.92;100156.80;2140486;82;33016;-68
2021/07/16 12:39:35;;;;;;;8.85;6.50;;;;;;;30.20;44.11;100154.87;2154086;82;29480;-67
2021/07/16 12:42:37;;;;;;;7.03;5.05;;;;;;;30.19;43.91;100160.94;2144929;82;27729;-66
2021/07/16 12:45:55;;;;;;;11.85;5.80;;;;;;;30.20;43.37;100162.61;2129651;83;28627;-65
2021/07/16 12:49:09;;;;;;;7.40;6.50;;;;;;;30.16;42.93;100160.80;2130944;82;31416;-64
2021/07/16 12:52:13;;;;;;;6.97;6.35;;;;;;;30.08;42.94;100166.54;2140720;82;33902;-75
2021/07/16 12:55:17;;;;;;;;;;;;;;;30.04;43.24;100161.10;2146323;82;30254;-71
2021/07/16 12:58:18;;;;;;;10.50;6.50;;;;;;;30.04;43.78;100167.14;2130475;82;27819;-64
2021/07/16 13:01:31;;;;;;;8.85;6.17;;;;;;;30.04;42.43;100169.39;2138600;82;29873;-67
2021/07/16 13:04:34;;;;;;;9.03;6.05;;;;;;;30.04;42.42;100161.61;2139944;81;31528;-69
2021/07/16 13:07:36;;;;;;;7.62;6.25;;;;;;;30.10;42.79;100164.42;2167395;81;32980;-66
2021/07/16 13:11:05;;;;;;;9.23;6.70;;;;;;;30.15;43.02;100159.64;2129544;83;30486;-67
2021/07/16 13:14:06;;;;;;;10.28;7.47;;;;;;;30.19;42.95;100161.45;2151911;82;27720;-67
2021/07/16 13:17:28;;;;;;;9.00;7.22;;;;;;;30.24;43.27;100156.99;2139383;82;29164;-67
2021/07/16 13:20:31;;;;;;;8.95;7.17;;;;;;;30.29;43.62;100157.23;2118358;84;31069;-64
2021/07/16 13:23:34;;;;;;;9.23;7.45;;;;;;;30.34;43.16;100154.38;2150240;81;34111;-68
2021/07/16 13:26:36;;;;;;;7.75;6.87;;;;;;;30.34;42.82;100148.84;2146315;82;30140;-65
2021/07/16 13:29:38;;;;;;;12.82;7.70;;;;;;;30.40;43.35;100146.08;2153817;82;28568;-65
2021/07/16 13:32:43;;;;;;;7.50;6.78;;;;;;;30.51;43.36;100146.50;2152328;81;29099;-67
2021/07/16 13:35:45;;;;;;;11.73;7.60;;;;;;;30.55;43.10;100137.60;2150258;82;31904;-67
2021/07/16 13:38:47;;;;;;;10.20;7.20;;;;;;;30.53;43.42;100136.92;2154958;82;34065;-64
2021/07/16 13:41:49;;;;;;;10.82;7.33;;;;;;;30.47;42.89;100127.57;2149936;82;30526;-67
2021/07/16 13:44:51;;;;;;;8.55;6.97;;;;;;;30.44;42.81;100124.39;2154867;82;27756;-63
2021/07/16 13:47:53;;;;;;;9.53;7.30;;;;;;;30.38;43.28;100127.98;2168176;81;30028;-63
2021/07/16 13:50:56;;;;;;;13.20;7.58;;;;;;;30.35;43.41;100120.98;2192554;81;32261;-67
2021/07/16 13:54:00;;;;;;;8.20;7.03;;;;;;;30.27;43.18;100128.11;2197281;80;37928;-64
2021/07/16 13:57:03;;;;;;;10.33;8.10;;;;;;;30.11;43.84;100126.58;2200577;80;30405;-67
2021/07/16 14:00:07;;;;;;;9.83;7.83;;;;;;;30.03;43.64;100133.70;2182813;80;27924;-65
2021/07/16 14:03:09;;;;;;;8.15;7.37;;;;;;;29.95;44.12;100141.10;2136970;83;29509;-69
2021/07/16 14:06:12;;;;;;;10.28;8.03;;;;;;;29.84;43.93;100134.23;2136636;83;31871;-66
2021/07/16 14:09:14;;;;;;;10.53;8.53;;;;;;;29.72;44.26;100131.76;2134456;82;34171;-67